Time;durP1;ratioP1;P1;durP2;ratioP2;P2;SDS_P1;SDS_P2;PMS_P1;PMS_P2;Temp;Humidity;BMP_temperature;BMP_pressure;BME280_temperature;BME280_humidity;BME280_pressure;Samples;Min_cycle;Max_cycle;Signal;HPM_P1;HPM_P2
2022/04/25 00:01:22;;;;;;;14.30;9.50;;;7.40;84.20;;;;;;5075373;28;20074;-68
2022/04/25 00:03:48;;;;;;;15.93;10.98;;;7.50;83.80;;;;;;5075672;28;20020;-68
2022/04/25 00:06:14;;;;;;;13.75;10.07;;;7.50;84.10;;;;;;5072376;28;20325;-68
2022/04/25 00:08:39;;;;;;;14.02;9.95;;;7.50;83.60;;;;;;5075732;28;20110;-67
2022/04/25 00:11:05;;;;;;;14.73;9.82;;;7.50;83.80;;;;;;5077782;28;20035;-68
2022/04/25 00:13:31;;;;;;;14.88;10.52;;;7.50;83.80;;;;;;5080429;28;20081;-68
2022/04/25 00:16:06;;;;;;;12.90;9.50;;;7.40;84.50;;;;;;5074282;28;20094;-69
2022/04/25 00:18:32;;;;;;;18.42;11.80;;;7.50;84.00;;;;;;5081317;28;20024;-68
2022/04/25 00:21:00;;;;;;;18.25;11.50;;;7.40;84.70;;;;;;5073743;28;20027;-68
2022/04/25 00:23:26;;;;;;;14.23;9.95;;;7.40;84.70;;;;;;5065192;28;20437;-69
2022/04/25 00:25:52;;;;;;;14.32;10.68;;;7.40;85.10;;;;;;5076200;28;20109;-68
2022/04/25 00:28:19;;;;;;;14.65;10.55;;;7.40;84.80;;;;;;5074868;28;20067;-68
2022/04/25 00:30:47;;;;;;;16.67;11.13;;;7.40;85.60;;;;;;5075519;28;20165;-68
2022/04/25 00:33:12;;;;;;;15.18;11.25;;;7.40;85.10;;;;;;5076759;28;20028;-68
2022/04/25 00:35:38;;;;;;;17.60;12.18;;;7.40;85.20;;;;;;5075177;28;20102;-68
2022/04/25 00:38:04;;;;;;;16.90;11.32;;;7.40;85.70;;;;;;5073733;28;20029;-69
2022/04/25 00:40:30;;;;;;;13.73;10.02;;;7.40;86.00;;;;;;5073672;28;20036;-68
2022/04/25 00:42:55;;;;;;;15.20;10.93;;;7.40;85.10;;;;;;5074948;28;20075;-68
2022/04/25 00:45:24;;;;;;;14.50;10.63;;;7.40;85.10;;;;;;5073641;28;20034;-68
2022/04/25 00:47:49;;;;;;;16.20;12.07;;;7.40;85.20;;;;;;5074596;28;20063;-68
2022/04/25 00:50:15;;;;;;;20.17;13.93;;;7.40;86.60;;;;;;5073061;28;20379;-68
2022/04/25 00:52:41;;;;;;;15.57;11.95;;;7.40;86.80;;;;;;5074278;28;20032;-67
2022/04/25 00:55:09;;;;;;;16.38;11.68;;;7.40;86.40;;;;;;5074826;28;20124;-68
2022/04/25 00:57:36;;;;;;;16.95;11.70;;;7.40;86.50;;;;;;5068305;28;20032;-67
2022/04/25 01:00:09;;;;;;;17.98;12.77;;;7.40;86.60;;;;;;5071094;28;20029;-67
2022/04/25 01:02:35;;;;;;;14.75;11.13;;;7.40;86.90;;;;;;5075384;28;20028;-67
2022/04/25 01:05:01;;;;;;;15.88;11.82;;;7.40;86.40;;;;;;5059662;28;20476;-67
2022/04/25 01:07:26;;;;;;;15.63;11.13;;;7.50;86.70;;;;;;5062565;28;20451;-67
2022/04/25 01:10:00;;;;;;;18.23;12.65;;;7.50;87.50;;;;;;5068199;28;20024;-69
2022/04/25 01:12:26;;;;;;;14.97;10.97;;;7.40;88.10;;;;;;5064535;28;20045;-69
2022/04/25 01:15:05;;;;;;;15.13;10.18;;;7.40;88.00;;;;;;5070487;28;20287;-69
2022/04/25 01:17:31;;;;;;;17.92;11.48;;;7.40;87.70;;;;;;5067554;28;20025;-69
2022/04/25 01:19:57;;;;;;;13.55;10.05;;;7.40;87.50;;;;;;5063415;28;20039;-69
2022/04/25 01:22:32;;;;;;;16.75;11.70;;;7.50;87.20;;;;;;5067883;28;20683;-69
2022/04/25 01:27:43;;;;;;;15.60;11.98;;;7.50;88.10;;;;;;5069171;28;20114;-68
2022/04/25 01:30:09;;;;;;;15.68;11.13;;;7.50;87.80;;;;;;5073292;28;20024;-68
2022/04/25 01:32:39;;;;;;;14.88;10.73;;;7.50;87.60;;;;;;5069520;28;20055;-68
2022/04/25 01:35:05;;;;;;;15.95;11.23;;;7.50;87.80;;;;;;5069551;28;20044;-68
2022/04/25 01:37:31;;;;;;;14.95;10.90;;;7.50;87.20;;;;;;5066867;28;20036;-68
2022/04/25 01:39:57;;;;;;;14.90;10.60;;;7.50;87.80;;;;;;5068796;28;20020;-68
2022/04/25 01:42:23;;;;;;;13.43;10.00;;;7.50;88.10;;;;;;5072416;28;20375;-68
2022/04/25 01:44:50;;;;;;;13.95;10.18;;;7.50;87.60;;;;;;5064079;28;20024;-68
2022/04/25 01:47:17;;;;;;;15.50;11.57;;;7.50;87.50;;;;;;5075299;28;20082;-67
2022/04/25 01:49:43;;;;;;;16.10;11.27;;;7.50;87.90;;;;;;5075173;28;20043;-68
2022/04/25 01:52:24;;;;;;;12.52;9.27;;;7.60;88.30;;;;;;5066333;28;20037;-68
2022/04/25 01:54:50;;;;;;;15.88;11.80;;;7.50;88.40;;;;;;5062422;28;20364;-67
2022/04/25 01:57:16;;;;;;;15.30;10.77;;;7.50;88.40;;;;;;5068497;28;20029;-68
2022/04/25 01:59:43;;;;;;;13.93;10.35;;;7.50;88.20;;;;;;5072508;28;20102;-68
2022/04/25 02:02:09;;;;;;;17.75;12.50;;;7.50;87.70;;;;;;5068991;28;20059;-68
2022/04/25 02:04:34;;;;;;;14.77;11.48;;;7.40;88.30;;;;;;5070661;28;20354;-67
2022/04/25 02:07:00;;;;;;;14.13;10.80;;;7.40;88.00;;;;;;5059987;28;20035;-67
2022/04/25 02:09:26;;;;;;;14.55;10.93;;;7.40;87.70;;;;;;5058493;28;20400;-68
2022/04/25 02:11:51;;;;;;;15.18;11.10;;;7.40;87.80;;;;;;5060025;28;20090;-69
2022/04/25 02:14:17;;;;;;;14.60;11.20;;;7.40;88.40;;;;;;5069519;28;20028;-69
2022/04/25 02:16:44;;;;;;;16.33;12.40;;;7.50;88.00;;;;;;5069053;28;20032;-69
2022/04/25 02:19:10;;;;;;;16.95;12.43;;;7.40;88.60;;;;;;5067115;28;20017;-68
2022/04/25 02:21:36;;;;;;;18.10;11.60;;;7.40;88.30;;;;;;5068723;28;20021;-68
2022/04/25 02:24:05;;;;;;;17.23;11.77;;;7.40;87.60;;;;;;5063758;28;20086;-68
2022/04/25 02:26:31;;;;;;;18.17;13.07;;;7.50;87.50;;;;;;5067498;28;20478;-68
2022/04/25 02:28:57;;;;;;;17.08;13.30;;;7.40;88.00;;;;;;5065841;28;20029;-68
2022/04/25 02:31:25;;;;;;;19.35;12.73;;;7.40;87.90;;;;;;5063062;28;20032;-68
2022/04/25 02:33:51;;;;;;;18.08;13.63;;;7.40;87.40;;;;;;5068550;28;20027;-67
2022/04/25 02:36:20;;;;;;;15.75;12.13;;;7.50;87.40;;;;;;5066637;28;21169;-68
2022/04/25 02:38:46;;;;;;;18.73;13.98;;;7.50;87.10;;;;;;5069814;28;20081;-68
2022/04/25 02:41:12;;;;;;;17.63;13.10;;;7.40;87.60;;;;;;5072035;28;20107;-67
2022/04/25 02:43:43;;;;;;;16.83;12.65;;;7.40;87.40;;;;;;5067645;28;20031;-68
2022/04/25 02:46:14;;;;;;;17.85;12.43;;;7.40;86.80;;;;;;5071214;28;20021;-67
2022/04/25 02:48:43;;;;;;;15.45;11.43;;;7.40;87.10;;;;;;5061585;28;20417;-68
2022/04/25 02:51:11;;;;;;;17.55;12.90;;;7.40;86.40;;;;;;5070905;28;20071;-66
2022/04/25 02:53:37;;;;;;;15.15;11.55;;;7.40;87.10;;;;;;5063547;28;20033;-67
2022/04/25 02:56:05;;;;;;;17.95;12.82;;;7.40;86.60;;;;;;5062209;28;20359;-67
2022/04/25 02:58:32;;;;;;;18.17;12.82;;;7.40;86.80;;;;;;5072735;28;20027;-68
2022/04/25 03:00:59;;;;;;;16.25;11.55;;;7.40;86.40;;;;;;5073186;28;20437;-68
2022/04/25 03:03:25;;;;;;;18.85;12.55;;;7.40;86.50;;;;;;5073665;28;20448;-69
2022/04/25 03:05:53;;;;;;;17.63;13.55;;;7.40;86.30;;;;;;5073896;28;20032;-68
2022/04/25 03:08:23;;;;;;;21.10;14.48;;;7.40;85.90;;;;;;5072495;28;20107;-68
2022/04/25 03:10:54;;;;;;;18.83;13.82;;;7.40;86.10;;;;;;5073641;28;20441;-68
2022/04/25 03:13:21;;;;;;;19.33;14.13;;;7.40;85.90;;;;;;5073514;28;20068;-68
2022/04/25 03:15:47;;;;;;;20.35;13.88;;;7.40;85.00;;;;;;5073013;28;20035;-68
2022/04/25 03:18:15;;;;;;;15.85;11.80;;;7.40;85.50;;;;;;5072786;28;20019;-68
2022/04/25 03:20:46;;;;;;;23.25;15.00;;;7.40;85.30;;;;;;5072256;28;20027;-69
2022/04/25 03:23:14;;;;;;;23.55;15.70;;;7.30;85.30;;;;;;5069914;28;20031;-68
2022/04/25 03:25:39;;;;;;;21.70;14.85;;;7.30;84.90;;;;;;5073991;28;20025;-68
2022/04/25 03:28:05;;;;;;;23.00;15.52;;;7.30;84.60;;;;;;5072350;28;20020;-68
2022/04/25 03:30:31;;;;;;;17.48;12.70;;;7.30;85.00;;;;;;5070801;28;20036;-68
2022/04/25 03:32:58;;;;;;;19.17;14.38;;;7.30;84.20;;;;;;5072345;28;20116;-69
2022/04/25 03:35:26;;;;;;;19.17;12.55;;;7.30;84.40;;;;;;5074399;28;20017;-69
2022/04/25 03:37:55;;;;;;;23.92;15.80;;;7.30;84.30;;;;;;5075612;28;20020;-69
2022/04/25 03:40:20;;;;;;;19.65;14.15;;;7.30;84.60;;;;;;5075633;28;20480;-69
2022/04/25 03:42:53;;;;;;;19.55;14.32;;;7.30;84.50;;;;;;5075328;28;20119;-69
2022/04/25 03:45:19;;;;;;;23.98;16.25;;;7.30;84.00;;;;;;5064088;28;20028;-68
2022/04/25 03:47:45;;;;;;;23.10;16.38;;;7.30;84.60;;;;;;5075196;28;20041;-68
2022/04/25 03:50:13;;;;;;;19.63;13.20;;;7.30;84.30;;;;;;5080776;28;20032;-68
2022/04/25 03:52:44;;;;;;;16.85;12.27;;;7.20;84.40;;;;;;5074255;28;20031;-68
2022/04/25 03:58:02;;;;;;;18.25;12.70;;;7.20;84.60;;;;;;5077623;28;20059;-68
2022/04/25 04:00:29;;;;;;;18.75;13.20;;;7.20;84.20;;;;;;5074837;28;20105;-67
2022/04/25 04:02:57;;;;;;;15.10;11.63;;;7.20;84.80;;;;;;5074929;28;20028;-67
2022/04/25 04:05:24;;;;;;;13.38;10.45;;;7.20;83.70;;;;;;5091295;28;20032;-69
2022/04/25 04:07:50;;;;;;;16.00;11.88;;;7.30;83.00;;;;;;5074421;28;20048;-67
2022/04/25 04:10:16;;;;;;;15.52;11.70;;;7.30;83.60;;;;;;5075007;28;20076;-69
2022/04/25 04:12:46;;;;;;;17.38;12.82;;;7.30;84.30;;;;;;5074639;28;20032;-68
2022/04/25 04:15:15;;;;;;;19.17;13.23;;;7.30;85.10;;;;;;5074800;28;20074;-69
2022/04/25 04:17:50;;;;;;;15.40;11.23;;;7.20;85.80;;;;;;5084993;28;20119;-69
2022/04/25 04:20:15;;;;;;;15.27;11.25;;;7.20;84.60;;;;;;5084170;28;20055;-69
2022/04/25 04:22:41;;;;;;;17.63;13.05;;;7.30;83.80;;;;;;5078767;28;20048;-68
2022/04/25 04:25:12;;;;;;;18.33;12.73;;;7.40;84.70;;;;;;5076391;28;20366;-69
2022/04/25 04:27:41;;;;;;;16.15;12.63;;;7.30;85.50;;;;;;5075704;28;20433;-68
2022/04/25 04:30:12;;;;;;;15.88;12.70;;;7.30;85.00;;;;;;5075339;28;20066;-69
2022/04/25 04:32:40;;;;;;;19.02;13.85;;;7.30;85.20;;;;;;5075619;28;20029;-69
2022/04/25 04:35:11;;;;;;;18.55;13.57;;;7.30;84.80;;;;;;5077165;28;20028;-68
2022/04/25 04:37:45;;;;;;;22.45;15.20;;;7.40;84.40;;;;;;5073204;28;20033;-69
2022/04/25 04:40:29;;;;;;;;;;;7.40;85.10;;;;;;5077053;28;20024;-69
2022/04/25 04:43:01;;;;;;;22.38;15.32;;;7.40;84.70;;;;;;5075303;28;19908;-68
2022/04/25 04:45:27;;;;;;;14.60;11.32;;;7.50;84.10;;;;;;5076988;28;20033;-69
2022/04/25 04:47:54;;;;;;;12.73;9.65;;;7.70;83.20;;;;;;5075881;28;20097;-68
2022/04/25 04:50:20;;;;;;;14.82;10.27;;;7.80;83.90;;;;;;5080899;28;20402;-69
2022/04/25 04:52:48;;;;;;;13.80;9.77;;;7.80;85.50;;;;;;5072811;28;20024;-69
2022/04/25 04:55:14;;;;;;;12.48;9.48;;;7.80;87.20;;;;;;5074212;28;20081;-68
2022/04/25 04:57:40;;;;;;;14.30;10.32;;;7.80;88.60;;;;;;5074990;28;20317;-69
2022/04/25 05:00:13;;;;;;;17.30;12.13;;;7.80;88.70;;;;;;5080020;28;20016;-69
2022/04/25 05:02:39;;;;;;;13.50;9.85;;;7.90;89.10;;;;;;5074699;28;20024;-69
2022/04/25 05:05:12;;;;;;;12.57;9.90;;;7.90;88.40;;;;;;5075095;28;20163;-68
2022/04/25 05:07:38;;;;;;;12.80;9.57;;;8.10;88.50;;;;;;5069466;28;20024;-69
2022/04/25 05:10:06;;;;;;;10.90;8.73;;;8.10;89.70;;;;;;5074795;28;20029;-69
2022/04/25 05:12:49;;;;;;;10.85;8.55;;;8.20;89.80;;;;;;5076223;28;20076;-69
2022/04/25 05:15:16;;;;;;;10.95;8.73;;;8.30;91.60;;;;;;5077383;28;20427;-70
2022/04/25 05:17:43;;;;;;;12.50;10.32;;;8.40;93.30;;;;;;5082413;28;20025;-69
2022/04/25 05:20:12;;;;;;;12.55;9.85;;;8.40;94.20;;;;;;5079865;28;20028;-68
2022/04/25 05:22:39;;;;;;;11.95;8.82;;;8.40;93.20;;;;;;5077098;28;20326;-69
2022/04/25 05:25:10;;;;;;;11.43;9.27;;;8.40;92.70;;;;;;5072577;28;20025;-69
2022/04/25 05:27:38;;;;;;;14.55;10.93;;;8.50;92.20;;;;;;5073044;28;20056;-68
2022/04/25 05:30:05;;;;;;;13.80;9.23;;;8.60;92.30;;;;;;5076881;28;20027;-68
2022/04/25 05:32:53;;;;;;;11.65;8.65;;;8.80;91.70;;;;;;5089822;28;20115;-68
2022/04/25 05:35:22;;;;;;;12.40;8.60;;;9.00;92.80;;;;;;5078700;28;20035;-69
2022/04/25 05:37:49;;;;;;;11.77;9.15;;;9.10;93.90;;;;;;5076610;28;20032;-69
2022/04/25 05:40:19;;;;;;;14.23;9.75;;;9.20;94.40;;;;;;5075091;28;20488;-69
2022/04/25 05:42:46;;;;;;;13.52;10.23;;;9.30;94.70;;;;;;5073461;28;20029;-68
2022/04/25 05:45:14;;;;;;;12.20;9.15;;;9.20;95.60;;;;;;5076921;28;20106;-69
2022/04/25 05:47:40;;;;;;;12.07;8.80;;;9.10;95.40;;;;;;5066383;28;20375;-67
2022/04/25 05:52:56;;;;;;;15.15;11.20;;;9.00;95.60;;;;;;5061932;28;20054;-68
2022/04/25 05:55:23;;;;;;;12.77;10.13;;;8.90;95.10;;;;;;5062220;28;20118;-69
2022/04/25 05:57:50;;;;;;;12.73;10.23;;;8.90;94.60;;;;;;5065121;28;20028;-68
2022/04/25 06:00:16;;;;;;;12.23;8.75;;;9.10;93.90;;;;;;5064733;28;20325;-69
2022/04/25 06:02:43;;;;;;;10.82;8.10;;;9.40;93.50;;;;;;5057349;28;20032;-68
2022/04/25 06:05:11;;;;;;;10.80;8.00;;;9.80;94.40;;;;;;5063367;28;20030;-69
2022/04/25 06:07:43;;;;;;;12.10;8.55;;;10.00;96.10;;;;;;5073303;28;20021;-69
2022/04/25 06:10:10;;;;;;;9.98;6.95;;;10.20;97.60;;;;;;5075840;28;20020;-69
2022/04/25 06:12:44;;;;;;;12.65;8.48;;;10.50;98.00;;;;;;5075479;28;20127;-69
2022/04/25 06:15:10;;;;;;;10.25;7.82;;;10.70;98.00;;;;;;5073587;28;20107;-69
2022/04/25 06:17:37;;;;;;;10.13;7.50;;;10.90;98.00;;;;;;5074657;28;20028;-70
2022/04/25 06:20:04;;;;;;;10.43;7.68;;;11.00;98.00;;;;;;5075657;28;20082;-69
2022/04/25 06:22:30;;;;;;;11.25;7.82;;;11.10;98.00;;;;;;5074283;28;20036;-69
2022/04/25 06:24:56;;;;;;;10.90;8.23;;;11.00;98.00;;;;;;5074421;28;20121;-69
2022/04/25 06:27:21;;;;;;;10.85;8.75;;;10.90;98.00;;;;;;5075065;28;20112;-69
2022/04/25 06:29:47;;;;;;;13.23;8.82;;;10.70;98.00;;;;;;5075544;28;20028;-69
2022/04/25 06:32:13;;;;;;;10.10;8.05;;;10.60;98.00;;;;;;5075086;28;20093;-68
2022/04/25 06:34:39;;;;;;;11.38;8.55;;;10.50;98.00;;;;;;5074496;28;20360;-69
2022/04/25 06:37:06;;;;;;;12.75;9.52;;;10.30;98.00;;;;;;5066819;28;20028;-69
2022/04/25 06:39:33;;;;;;;13.35;10.48;;;10.20;98.00;;;;;;5073560;28;20051;-68
2022/04/25 06:41:59;;;;;;;14.43;10.45;;;10.30;98.00;;;;;;5074270;28;20025;-69
2022/04/25 06:44:28;;;;;;;12.48;9.93;;;10.60;98.00;;;;;;5073207;28;20032;-69
2022/04/25 06:46:54;;;;;;;13.43;10.52;;;10.90;98.00;;;;;;5075354;28;20077;-68
2022/04/25 06:49:20;;;;;;;12.77;10.02;;;11.00;98.00;;;;;;5074704;28;20036;-68
2022/04/25 06:51:47;;;;;;;13.70;10.43;;;10.90;98.00;;;;;;5074409;28;20032;-68
2022/04/25 06:54:16;;;;;;;11.50;9.23;;;11.20;97.50;;;;;;5072926;28;20029;-68
2022/04/25 06:56:41;;;;;;;12.32;10.38;;;11.40;97.30;;;;;;5073992;28;20110;-68
2022/04/25 06:59:07;;;;;;;12.85;9.98;;;11.50;96.20;;;;;;5074750;28;20075;-70
2022/04/25 07:01:33;;;;;;;14.15;9.75;;;11.40;96.30;;;;;;5074292;28;20021;-69
2022/04/25 07:04:02;;;;;;;12.82;10.15;;;11.80;95.90;;;;;;5075267;28;20360;-70
2022/04/25 07:06:28;;;;;;;12.88;10.20;;;12.00;95.00;;;;;;5072986;28;20299;-70
2022/04/25 07:08:54;;;;;;;12.75;9.85;;;12.10;94.20;;;;;;5071286;28;20028;-69
2022/04/25 07:11:20;;;;;;;11.70;9.57;;;12.30;93.00;;;;;;5075507;28;20072;-69
2022/04/25 07:13:49;;;;;;;13.82;11.52;;;12.60;93.30;;;;;;5077486;28;20020;-69
2022/04/25 07:16:15;;;;;;;30.67;25.13;;;12.60;91.60;;;;;;5075559;28;20024;-69
2022/04/25 07:18:41;;;;;;;17.13;13.60;;;12.30;93.30;;;;;;5077937;28;20036;-69
2022/04/25 07:29:24;;;;;;;14.10;10.23;;;12.60;93.10;;;;;;5077508;28;20035;-68
2022/04/25 07:31:51;;;;;;;11.48;8.93;;;12.80;91.40;;;;;;5078450;28;20032;-68
2022/04/25 07:34:21;;;;;;;9.82;7.95;;;12.90;91.20;;;;;;5075850;28;20105;-68
2022/04/25 07:36:54;;;;;;;9.15;7.53;;;13.00;91.70;;;;;;5079771;28;20032;-69
2022/04/25 07:39:23;;;;;;;11.80;9.05;;;13.30;90.30;;;;;;5075869;28;20031;-69
2022/04/25 07:41:49;;;;;;;16.92;11.57;;;13.60;89.90;;;;;;5076176;28;20028;-69
2022/04/25 07:44:16;;;;;;;21.88;14.52;;;13.40;88.70;;;;;;5080468;28;20067;-69
2022/04/25 07:46:42;;;;;;;14.85;10.60;;;13.40;88.80;;;;;;5089094;28;20038;-68
2022/04/25 07:49:12;;;;;;;11.88;9.50;;;13.20;87.40;;;;;;5098661;28;20031;-69
2022/04/25 07:51:42;;;;;;;13.45;9.80;;;13.40;88.30;;;;;;5073757;28;20024;-69
2022/04/25 07:54:09;;;;;;;12.60;9.50;;;14.10;88.90;;;;;;5073081;28;20074;-69
2022/04/25 07:56:39;;;;;;;10.15;7.78;;;15.50;85.90;;;;;;5076617;28;20021;-69
2022/04/25 07:59:05;;;;;;;12.32;8.65;;;17.40;81.90;;;;;;5078038;28;20012;-69
2022/04/25 08:01:33;;;;;;;10.43;7.82;;;18.60;77.60;;;;;;5075831;28;20032;-70
2022/04/25 08:03:59;;;;;;;10.10;7.85;;;18.60;74.20;;;;;;5076017;28;20021;-69
2022/04/25 08:06:24;;;;;;;14.30;8.93;;;18.40;74.50;;;;;;5076901;28;20082;-69
2022/04/25 08:08:51;;;;;;;12.45;8.80;;;18.20;73.70;;;;;;5075865;28;20425;-70
2022/04/25 08:11:18;;;;;;;13.77;9.13;;;17.80;73.90;;;;;;5075532;28;20028;-68
2022/04/25 08:19:16;;;;;;;12.48;8.88;;;17.60;73.60;;;;;;5067865;28;20032;-67
2022/04/25 08:21:43;;;;;;;12.27;8.25;;;17.00;73.80;;;;;;5059601;28;20024;-66
2022/04/25 08:24:10;;;;;;;9.90;7.85;;;17.40;74.10;;;;;;5074355;28;20031;-68
2022/04/25 08:26:36;;;;;;;10.82;8.15;;;18.20;72.00;;;;;;5065875;28;20120;-68
2022/04/25 08:29:02;;;;;;;8.68;7.03;;;18.60;70.80;;;;;;5067980;28;20115;-68
2022/04/25 08:31:28;;;;;;;10.02;7.65;;;18.90;69.60;;;;;;5071484;28;20028;-67
2022/04/25 08:33:55;;;;;;;10.65;7.97;;;18.40;71.70;;;;;;5064577;28;20029;-69
2022/04/25 08:36:22;;;;;;;10.05;7.88;;;16.90;75.20;;;;;;5076985;28;20037;-67
2022/04/25 08:38:48;;;;;;;10.70;8.02;;;16.20;78.30;;;;;;5075349;28;20473;-68
2022/04/25 08:41:21;;;;;;;9.77;7.30;;;16.60;77.10;;;;;;5081668;28;20071;-68
2022/04/25 08:43:52;;;;;;;8.38;6.75;;;17.40;77.80;;;;;;5073499;28;20041;-68
2022/04/25 08:46:20;;;;;;;8.77;6.60;;;19.10;73.10;;;;;;5075543;28;20029;-68
2022/04/25 08:48:46;;;;;;;8.75;6.88;;;20.20;69.00;;;;;;5075010;28;20032;-68
2022/04/25 08:51:15;;;;;;;11.90;6.75;;;20.20;68.90;;;;;;5072639;28;20013;-68
2022/04/25 08:53:43;;;;;;;9.40;7.10;;;19.80;69.00;;;;;;5076066;28;20370;-68
2022/04/25 08:56:10;;;;;;;9.50;7.43;;;19.20;71.50;;;;;;5078497;28;20024;-69
2022/04/25 08:58:40;;;;;;;10.38;8.82;;;19.60;70.90;;;;;;5075858;28;20020;-68
2022/04/25 09:01:09;;;;;;;8.70;7.15;;;18.90;69.40;;;;;;5076724;28;20333;-67
2022/04/25 09:03:37;;;;;;;12.88;8.90;;;17.50;73.30;;;;;;5086016;28;20157;-68
2022/04/25 09:06:06;;;;;;;12.23;9.30;;;16.80;75.10;;;;;;5070710;28;20025;-67
2022/04/25 09:08:32;;;;;;;11.48;8.40;;;16.10;75.40;;;;;;5080096;28;20073;-68
2022/04/25 09:13:45;;;;;;;10.65;8.82;;;15.30;78.50;;;;;;5044433;28;20041;-68
2022/04/25 09:16:15;;;;;;;10.48;8.48;;;15.20;80.90;;;;;;5090414;28;20035;-68
2022/04/25 09:18:42;;;;;;;10.70;8.57;;;15.10;79.70;;;;;;5081910;28;20028;-68
2022/04/25 09:21:08;;;;;;;12.00;9.05;;;15.10;80.80;;;;;;5091352;28;20434;-67
2022/04/25 09:23:33;;;;;;;9.75;8.43;;;14.90;83.30;;;;;;5085160;28;20056;-68
2022/04/25 09:26:15;;;;;;;11.93;8.75;;;14.90;83.10;;;;;;5088948;28;20435;-68
2022/04/25 09:28:56;;;;;;;12.23;9.23;;;15.00;82.90;;;;;;5067940;28;20129;-67
2022/04/25 09:31:24;;;;;;;11.80;9.38;;;15.10;83.40;;;;;;5078766;28;20412;-67
2022/04/25 09:33:51;;;;;;;10.90;8.75;;;15.20;83.30;;;;;;5074618;28;20028;-67
2022/04/25 09:36:16;;;;;;;15.13;10.25;;;15.30;81.80;;;;;;5073658;28;20024;-67
2022/04/25 09:38:44;;;;;;;13.90;11.55;;;15.10;81.90;;;;;;5083614;28;20024;-67
2022/04/25 09:41:13;;;;;;;16.05;11.55;;;14.70;83.20;;;;;;5072781;28;20027;-67
2022/04/25 09:43:44;;;;;;;14.38;11.65;;;14.20;84.80;;;;;;5075025;28;20417;-67
2022/04/25 09:46:14;;;;;;;13.23;10.90;;;13.80;86.40;;;;;;5081677;28;20038;-66
2022/04/25 09:48:43;;;;;;;19.27;12.57;;;13.50;86.60;;;;;;5077374;28;20041;-66
2022/04/25 09:51:17;;;;;;;14.07;12.32;;;13.30;86.80;;;;;;5077238;28;20059;-66
2022/04/25 09:53:49;;;;;;;15.27;12.00;;;13.10;88.50;;;;;;5068633;28;20081;-68
2022/04/25 09:56:18;;;;;;;14.07;11.82;;;13.20;89.20;;;;;;5073066;28;20153;-67
2022/04/25 09:58:45;;;;;;;16.17;12.15;;;13.00;90.20;;;;;;5073152;28;20397;-69
2022/04/25 10:01:14;;;;;;;14.18;11.65;;;12.80;90.50;;;;;;5075006;28;20360;-67
2022/04/25 10:03:41;;;;;;;19.08;14.50;;;12.60;90.10;;;;;;5080685;28;20031;-68
2022/04/25 10:06:08;;;;;;;17.08;13.32;;;12.20;92.10;;;;;;5074510;28;20032;-69
2022/04/25 10:08:35;;;;;;;17.65;14.65;;;11.80;94.20;;;;;;5070874;28;20048;-67
2022/04/25 10:11:03;;;;;;;18.55;15.32;;;11.50;95.70;;;;;;5073260;28;20040;-68
2022/04/25 10:13:31;;;;;;;19.23;14.43;;;11.40;96.50;;;;;;5075621;28;20028;-68
2022/04/25 10:15:57;;;;;;;18.42;15.18;;;11.30;96.80;;;;;;5072498;28;20028;-68
2022/04/25 10:18:25;;;;;;;18.17;14.50;;;11.40;96.40;;;;;;5067810;28;20021;-68
2022/04/25 10:20:51;;;;;;;20.52;16.25;;;11.50;96.40;;;;;;5079294;28;20012;-67
2022/04/25 10:23:17;;;;;;;18.67;15.82;;;11.80;97.50;;;;;;5090422;28;20028;-67
2022/04/25 10:25:54;;;;;;;20.83;15.98;;;12.00;95.40;;;;;;5082294;28;20409;-68
2022/04/25 10:28:30;;;;;;;18.63;14.95;;;12.60;95.50;;;;;;5073302;28;20036;-67
2022/04/25 10:31:23;;;;;;;19.63;16.02;;;12.90;93.20;;;;;;5066002;28;20027;-68
2022/04/25 10:34:00;;;;;;;18.15;15.48;;;13.10;94.20;;;;;;5070687;28;20136;-68
2022/04/25 10:36:38;;;;;;;18.75;14.95;;;13.20;93.40;;;;;;5070534;28;20111;-68
2022/04/25 10:39:14;;;;;;;18.52;14.07;;;13.00;93.40;;;;;;5072815;28;20044;-67
2022/04/25 10:44:48;;;;;;;17.02;14.63;;;12.30;93.70;;;;;;5075964;28;20086;-67
2022/04/25 10:47:16;;;;;;;19.08;15.00;;;11.90;94.90;;;;;;5074183;28;20034;-68
2022/04/25 10:49:44;;;;;;;18.70;14.10;;;11.90;96.00;;;;;;5084597;28;20023;-67
2022/04/25 10:52:32;;;;;;;17.83;14.43;;;11.80;94.10;;;;;;5077684;28;20106;-66
2022/04/25 10:55:30;;;;;;;16.30;13.70;;;11.50;95.70;;;;;;5084754;28;20078;-68
2022/04/25 10:58:05;;;;;;;16.70;13.63;;;11.30;96.20;;;;;;5078950;28;20013;-68
2022/04/25 11:00:36;;;;;;;17.50;14.30;;;11.10;96.50;;;;;;5073135;28;20016;-68
2022/04/25 11:03:25;;;;;;;18.85;15.95;;;10.90;96.80;;;;;;5082373;28;20045;-68
2022/04/25 11:05:51;;;;;;;22.33;17.38;;;10.80;96.90;;;;;;5077301;28;20071;-68
2022/04/25 11:08:20;;;;;;;22.27;17.35;;;10.50;97.50;;;;;;5075202;28;20051;-69
2022/04/25 11:10:59;;;;;;;28.88;21.85;;;10.20;97.20;;;;;;5077091;28;20040;-70
2022/04/25 11:13:31;;;;;;;23.05;18.63;;;9.90;96.40;;;;;;5065680;28;20039;-70
2022/04/25 11:16:13;;;;;;;21.92;18.85;;;9.70;96.80;;;;;;5077047;28;20021;-70
2022/04/25 11:18:41;;;;;;;26.77;21.83;;;9.50;96.20;;;;;;5087804;28;20032;-70
2022/04/25 11:21:14;;;;;;;30.45;22.10;;;9.40;94.60;;;;;;5084868;28;20312;-71
2022/04/25 11:23:43;;;;;;;33.63;25.35;;;9.40;94.20;;;;;;5080442;28;20063;-71
2022/04/25 11:26:11;;;;;;;25.92;20.10;;;9.40;93.20;;;;;;5075111;28;20414;-70
2022/04/25 11:28:58;;;;;;;23.95;19.30;;;9.10;95.90;;;;;;5085310;28;20035;-71
2022/04/25 11:31:24;;;;;;;29.08;21.50;;;8.70;94.20;;;;;;5081801;28;20081;-71
2022/04/25 11:33:53;;;;;;;23.88;17.80;;;8.20;93.10;;;;;;5077725;28;20020;-71
2022/04/25 11:36:21;;;;;;;24.65;18.52;;;7.80;93.10;;;;;;5074468;28;20425;-71
2022/04/25 11:41:40;;;;;;;29.10;17.35;;;7.40;91.80;;;;;;5081081;28;20334;-71
2022/04/25 11:44:07;;;;;;;23.52;16.65;;;7.40;91.20;;;;;;5077972;28;20441;-71
2022/04/25 11:46:36;;;;;;;25.45;18.38;;;7.30;91.50;;;;;;5075838;28;20025;-72
2022/04/25 11:49:04;;;;;;;22.70;18.00;;;7.30;90.50;;;;;;5072658;28;20027;-72
2022/04/25 11:51:38;;;;;;;27.02;19.30;;;7.30;89.20;;;;;;5080595;28;20031;-72
2022/04/25 11:54:11;;;;;;;14.50;11.18;;;7.30;88.90;;;;;;5082023;28;20027;-72
2022/04/25 11:56:40;;;;;;;21.60;16.90;;;7.40;88.60;;;;;;5074577;28;20430;-72
2022/04/25 11:59:18;;;;;;;20.63;14.77;;;7.70;88.30;;;;;;5075581;28;20066;-72
2022/04/25 12:01:47;;;;;;;18.85;14.85;;;7.80;88.20;;;;;;5077727;28;20029;-71
2022/04/25 12:04:34;;;;;;;16.83;13.65;;;8.10;87.90;;;;;;5081404;28;20017;-72
2022/04/25 12:07:07;;;;;;;12.23;10.25;;;8.50;86.70;;;;;;5070536;28;20035;-71
2022/04/25 12:18:19;;;;;;;9.85;7.40;;;10.60;98.00;;;;;;5078037;28;20027;-69
2022/04/25 12:20:58;;;;;;;8.95;7.30;;;10.90;98.00;;;;;;5057697;28;20427;-69
2022/04/25 12:23:25;;;;;;;8.30;6.35;;;11.30;98.00;;;;;;5072319;28;20035;-69
2022/04/25 12:25:53;;;;;;;9.60;6.32;;;11.10;98.00;;;;;;5076429;28;20447;-69
2022/04/25 12:28:23;;;;;;;7.82;6.10;;;11.20;98.00;;;;;;5079816;28;20028;-68
2022/04/25 12:31:04;;;;;;;7.93;6.53;;;11.50;98.00;;;;;;5076233;28;20111;-69
2022/04/25 12:33:41;;;;;;;9.93;8.23;;;11.70;98.00;;;;;;5077386;28;20033;-69
2022/04/25 12:36:16;;;;;;;8.10;6.20;;;11.80;98.00;;;;;;5077205;28;20032;-68
2022/04/25 12:38:56;;;;;;;8.10;6.22;;;11.70;98.00;;;;;;5076765;28;20309;-68
2022/04/25 12:41:32;;;;;;;8.40;7.07;;;11.90;98.00;;;;;;5077272;28;20020;-68
2022/04/25 12:44:02;;;;;;;7.45;6.22;;;12.00;97.50;;;;;;5074235;28;20032;-67
2022/04/25 12:46:47;;;;;;;9.32;7.38;;;11.90;97.50;;;;;;5062137;28;20369;-67
2022/04/25 12:49:15;;;;;;;7.40;5.68;;;12.20;98.00;;;;;;5067112;28;20042;-69
2022/04/25 12:51:50;;;;;;;6.63;5.10;;;12.70;98.00;;;;;;5070012;28;20103;-69
2022/04/25 12:54:32;;;;;;;6.72;5.10;;;12.90;97.80;;;;;;5067285;28;20021;-69
2022/04/25 12:57:12;;;;;;;4.90;3.13;;;13.20;97.70;;;;;;5076410;28;20020;-69
2022/04/25 12:59:37;;;;;;;5.05;3.63;;;13.40;94.60;;;;;;5073421;28;20028;-67
2022/04/25 13:02:11;;;;;;;5.13;3.88;;;13.30;93.90;;;;;;5063343;28;20089;-67
2022/04/25 13:04:58;;;;;;;;;;;13.30;94.20;;;;;;5061072;28;20029;-67
2022/04/25 13:07:24;;;;;;;;;;;13.70;94.00;;;;;;5071918;28;19919;-68
2022/04/25 13:09:55;;;;;;;;;;;14.90;92.20;;;;;;5071597;28;19908;-68
2022/04/25 13:12:34;;;;;;;;;;;16.00;86.20;;;;;;5073336;28;19959;-68
2022/04/25 13:15:00;;;;;;;;;;;16.00;85.10;;;;;;5072217;28;20313;-67
2022/04/25 13:17:26;;;;;;;;;;;15.80;86.40;;;;;;5074921;28;19908;-67
2022/04/25 13:19:51;;;;;;;;;;;15.80;82.60;;;;;;5066859;28;20240;-67
2022/04/25 13:22:17;;;;;;;;;;;15.50;85.50;;;;;;5060416;28;19912;-67
2022/04/25 13:24:43;;;;;;;;;;;14.60;84.90;;;;;;5071191;28;19911;-67
2022/04/25 13:27:09;;;;;;;;;;;15.10;84.50;;;;;;5074641;28;19908;-67
2022/04/25 13:29:35;;;;;;;;;;;15.60;81.30;;;;;;5065914;28;19909;-68